createdAt,value
2023-01-19T00:00:50.274Z,4.30
2023-01-19T00:01:50.252Z,4.90
2023-01-19T00:02:50.227Z,4.70
2023-01-19T00:03:50.221Z,4.40
2023-01-19T00:04:50.220Z,5.10
2023-01-19T00:05:50.254Z,4.30
2023-01-19T00:06:50.171Z,4.10
2023-01-19T00:07:50.169Z,4.30
2023-01-19T00:08:50.175Z,4.40
2023-01-19T00:09:50.171Z,5.20
2023-01-19T00:10:50.147Z,4.80
2023-01-19T00:11:50.134Z,4.60
2023-01-19T00:12:50.112Z,5.00
2023-01-19T00:13:50.098Z,4.30
2023-01-19T00:14:50.099Z,4.90
2023-01-19T00:15:50.171Z,4.50
2023-01-19T00:16:50.093Z,4.40
2023-01-19T00:17:50.059Z,5.00
2023-01-19T00:18:50.044Z,4.30
2023-01-19T00:19:50.062Z,4.50
2023-01-19T00:20:50.029Z,4.40
2023-01-19T00:21:50.040Z,4.10
2023-01-19T00:22:50.018Z,5.00
2023-01-19T00:23:50.005Z,4.10
2023-01-19T00:24:50.015Z,4.40
2023-01-19T00:25:49.992Z,4.50
2023-01-19T00:26:49.964Z,4.60
2023-01-19T00:27:49.957Z,4.80
2023-01-19T00:28:49.951Z,4.90
2023-01-19T00:29:49.959Z,5.20
2023-01-19T00:30:49.924Z,4.30
2023-01-19T00:31:49.948Z,4.60
2023-01-19T00:32:49.917Z,4.70
2023-01-19T00:33:49.898Z,5.10
2023-01-19T00:34:49.904Z,4.50
2023-01-19T00:35:49.902Z,4.40
2023-01-19T00:36:49.871Z,4.80
2023-01-19T00:37:49.863Z,4.30
2023-01-19T00:38:49.857Z,4.40
2023-01-19T00:39:49.846Z,5.30
2023-01-19T00:40:49.845Z,4.00
2023-01-19T00:41:49.819Z,4.50
2023-01-19T00:42:49.803Z,4.90
2023-01-19T00:43:49.805Z,4.90
2023-01-19T00:44:49.844Z,4.40
2023-01-19T00:45:49.837Z,4.40
2023-01-19T00:46:49.774Z,5.30
2023-01-19T00:47:49.775Z,4.20
2023-01-19T00:48:49.750Z,4.50
2023-01-19T00:49:49.753Z,4.30
2023-01-19T00:50:49.730Z,4.60
2023-01-19T00:51:49.719Z,4.70
2023-01-19T00:52:49.801Z,4.50
2023-01-19T00:53:49.699Z,4.40
2023-01-19T00:54:49.729Z,4.40
2023-01-19T00:55:49.685Z,4.60
2023-01-19T00:56:49.679Z,4.30
2023-01-19T00:57:49.667Z,4.60
2023-01-19T00:58:49.663Z,4.10
2023-01-19T00:59:49.668Z,4.80
2023-01-19T01:00:49.772Z,4.80
2023-01-19T01:01:49.760Z,4.10
2023-01-19T01:02:49.664Z,4.10
2023-01-19T01:03:49.607Z,5.20
2023-01-19T01:04:49.593Z,4.40
2023-01-19T01:05:49.615Z,4.10
2023-01-19T01:06:49.573Z,4.00
2023-01-19T01:07:49.570Z,5.00
2023-01-19T01:08:49.555Z,4.30
2023-01-19T01:09:49.590Z,4.40
2023-01-19T01:10:49.535Z,4.40
2023-01-19T01:11:49.522Z,4.40
2023-01-19T01:13:20.031Z,4.30
2023-01-19T01:13:49.505Z,4.00
2023-01-19T01:14:49.510Z,4.20
2023-01-19T01:15:49.496Z,5.00
2023-01-19T01:16:49.521Z,4.30
2023-01-19T01:17:49.473Z,4.00
2023-01-19T01:18:49.457Z,4.20
2023-01-19T01:19:49.456Z,4.20
2023-01-19T01:20:49.438Z,4.10
2023-01-19T01:21:49.427Z,4.40
2023-01-19T01:22:49.415Z,4.90
2023-01-19T01:23:49.411Z,3.50
2023-01-19T01:24:49.447Z,4.00
2023-01-19T01:25:49.394Z,4.40
2023-01-19T01:26:49.393Z,4.60
2023-01-19T01:27:49.381Z,4.00
2023-01-19T01:28:49.368Z,4.40
2023-01-19T01:29:49.435Z,4.80
2023-01-19T01:30:49.334Z,4.40
2023-01-19T01:31:49.328Z,4.60
2023-01-19T01:32:49.307Z,3.80
2023-01-19T01:33:49.315Z,4.70
2023-01-19T01:34:49.319Z,4.10
2023-01-19T01:35:49.288Z,4.30
2023-01-19T01:36:49.283Z,4.30
2023-01-19T01:37:49.265Z,4.30
2023-01-19T01:38:49.255Z,4.20
2023-01-19T01:39:49.279Z,4.00
2023-01-19T01:40:49.236Z,4.40
2023-01-19T01:41:49.215Z,4.10
2023-01-19T01:42:49.212Z,4.20
2023-01-19T01:43:49.256Z,3.80
2023-01-19T01:44:49.221Z,3.50
2023-01-19T01:45:49.269Z,3.70
2023-01-19T01:46:49.189Z,3.80
2023-01-19T01:47:49.160Z,4.00
2023-01-19T01:48:49.156Z,4.40
2023-01-19T01:49:49.159Z,3.90
2023-01-19T01:50:49.140Z,3.80
2023-01-19T01:51:49.126Z,3.90
2023-01-19T01:53:07.444Z,4.40
2023-01-19T01:53:49.101Z,4.00
2023-01-19T01:54:49.143Z,4.20
2023-01-19T01:55:49.076Z,4.30
2023-01-19T01:56:49.082Z,4.20
2023-01-19T01:57:49.064Z,3.90
2023-01-19T01:58:49.052Z,4.70
2023-01-19T01:59:49.057Z,3.90
2023-01-19T02:00:49.097Z,4.00
2023-01-19T02:01:49.115Z,3.90
2023-01-19T02:02:49.024Z,4.20
2023-01-19T02:03:49.000Z,4.70
2023-01-19T02:04:49.022Z,4.40
2023-01-19T02:05:49.019Z,5.40
2023-01-19T02:06:48.972Z,4.20
2023-01-19T02:07:48.973Z,4.40
2023-01-19T02:08:48.955Z,4.00
2023-01-19T02:09:48.963Z,4.40
2023-01-19T02:10:48.990Z,4.50
2023-01-19T02:11:48.919Z,4.30
2023-01-19T02:12:48.911Z,4.40
2023-01-19T02:13:48.922Z,4.90
2023-01-19T02:14:48.898Z,4.10
2023-01-19T02:15:48.894Z,4.30
2023-01-19T02:16:48.889Z,4.30
2023-01-19T02:17:48.875Z,4.40
2023-01-19T02:18:48.865Z,4.30
2023-01-19T02:19:48.858Z,3.80
2023-01-19T02:20:48.875Z,3.80
2023-01-19T02:21:48.848Z,4.20
2023-01-19T02:22:48.851Z,4.10
2023-01-19T02:23:48.837Z,4.60
2023-01-19T02:24:48.809Z,4.30
2023-01-19T02:25:48.827Z,4.20
2023-01-19T02:26:48.777Z,4.30
2023-01-19T02:27:48.847Z,4.40
2023-01-19T02:28:48.774Z,4.20
2023-01-19T02:29:48.921Z,4.30
2023-01-19T02:30:48.804Z,4.50
2023-01-19T02:31:48.715Z,4.40
2023-01-19T02:32:48.722Z,4.20
2023-01-19T02:33:48.695Z,4.20
2023-01-19T02:34:48.713Z,4.10
2023-01-19T02:35:48.733Z,3.80
2023-01-19T02:36:48.703Z,4.80
2023-01-19T02:37:48.662Z,4.20
2023-01-19T02:38:48.649Z,3.90
2023-01-19T02:39:48.670Z,4.00
2023-01-19T02:40:48.661Z,3.80
2023-01-19T02:41:48.614Z,3.80
2023-01-19T02:42:48.626Z,4.30
2023-01-19T02:43:48.589Z,4.60
2023-01-19T02:44:48.598Z,4.00
2023-01-19T02:45:48.617Z,5.10
2023-01-19T02:46:48.567Z,4.30
2023-01-19T02:47:48.565Z,4.10
2023-01-19T02:48:48.548Z,4.70
2023-01-19T02:49:48.543Z,4.10
2023-01-19T02:50:48.539Z,4.20
2023-01-19T02:51:48.513Z,4.00
2023-01-19T02:52:48.519Z,4.50
2023-01-19T02:53:48.497Z,5.30
2023-01-19T02:54:48.492Z,4.40
2023-01-19T02:55:48.516Z,4.60
2023-01-19T02:56:48.472Z,4.50
2023-01-19T02:57:48.454Z,4.30
2023-01-19T02:58:48.447Z,3.50
2023-01-19T02:59:48.448Z,4.70
2023-01-19T03:00:48.533Z,5.00
2023-01-19T03:01:48.556Z,4.50
2023-01-19T03:02:48.506Z,3.60
2023-01-19T03:03:48.397Z,4.90
2023-01-19T03:04:48.391Z,3.80
2023-01-19T03:05:48.425Z,4.10
2023-01-19T03:06:48.382Z,4.00
2023-01-19T03:07:48.351Z,4.40
2023-01-19T03:08:48.351Z,4.10
2023-01-19T03:09:48.332Z,4.10
2023-01-19T03:10:48.400Z,4.60
2023-01-19T03:11:48.308Z,4.70
2023-01-19T03:12:48.315Z,4.80
2023-01-19T03:13:48.292Z,4.90
2023-01-19T03:14:48.285Z,4.30
2023-01-19T03:15:48.338Z,4.60
2023-01-19T03:16:48.406Z,4.10
2023-01-19T03:17:48.259Z,4.50
2023-01-19T03:18:48.247Z,4.60
2023-01-19T03:19:48.240Z,4.50
2023-01-19T03:20:48.239Z,5.30
2023-01-19T03:21:48.212Z,4.40
2023-01-19T03:22:48.206Z,4.10
2023-01-19T03:23:48.187Z,4.60
2023-01-19T03:24:48.196Z,4.10
2023-01-19T03:25:48.193Z,4.50
2023-01-19T03:26:48.168Z,4.30
2023-01-19T03:27:48.157Z,5.30
2023-01-19T03:28:48.144Z,4.10
2023-01-19T03:29:48.138Z,3.90
2023-01-19T03:30:48.154Z,4.20
2023-01-19T03:31:48.116Z,4.80
2023-01-19T03:32:48.101Z,4.90
2023-01-19T03:33:48.099Z,4.50
2023-01-19T03:34:48.089Z,4.50
2023-01-19T03:35:48.079Z,4.00
2023-01-19T03:36:48.070Z,4.60
2023-01-19T03:37:48.051Z,4.50
2023-01-19T03:38:48.042Z,4.80
2023-01-19T03:39:48.044Z,4.40
2023-01-19T03:40:48.045Z,4.60
2023-01-19T03:41:48.054Z,5.40
2023-01-19T03:42:48.049Z,4.70
2023-01-19T03:43:47.992Z,4.90
2023-01-19T03:44:47.982Z,4.20
2023-01-19T03:45:48.043Z,4.70
2023-01-19T03:46:47.972Z,4.00
2023-01-19T03:47:47.958Z,5.10
2023-01-19T03:48:47.942Z,5.00
2023-01-19T03:49:47.959Z,4.60
2023-01-19T03:50:47.941Z,4.60
2023-01-19T03:51:47.929Z,4.60
2023-01-19T03:52:47.910Z,4.30
2023-01-19T03:53:47.897Z,4.20
2023-01-19T03:54:47.897Z,4.10
2023-01-19T03:55:47.896Z,5.00
2023-01-19T03:56:47.877Z,4.20
2023-01-19T03:57:47.853Z,5.10
2023-01-19T03:58:47.852Z,4.90
2023-01-19T03:59:47.829Z,5.50
2023-01-19T04:00:47.841Z,4.20
2023-01-19T04:01:47.907Z,3.80
2023-01-19T04:02:47.867Z,4.50
2023-01-19T04:03:47.798Z,4.50
2023-01-19T04:04:47.787Z,4.70
2023-01-19T04:05:47.792Z,4.30
2023-01-19T04:06:47.774Z,4.70
2023-01-19T04:07:47.753Z,4.70
2023-01-19T04:08:47.756Z,5.00
2023-01-19T04:09:47.727Z,4.00
2023-01-19T04:10:47.737Z,4.50
2023-01-19T04:11:47.763Z,4.40
2023-01-19T04:12:47.718Z,4.60
2023-01-19T04:13:47.687Z,4.50
2023-01-19T04:14:47.700Z,4.10
2023-01-19T04:15:47.722Z,4.50
2023-01-19T04:16:47.700Z,4.70
2023-01-19T04:17:47.661Z,4.50
2023-01-19T04:18:47.650Z,4.40
2023-01-19T04:19:47.629Z,4.70
2023-01-19T04:20:47.626Z,4.50
2023-01-19T04:21:47.640Z,4.50
2023-01-19T04:22:47.600Z,4.40
2023-01-19T04:23:47.594Z,4.80
2023-01-19T04:24:47.583Z,5.10
2023-01-19T04:25:47.567Z,4.80
2023-01-19T04:26:47.657Z,4.10
2023-01-19T04:27:47.549Z,5.00
2023-01-19T04:28:47.552Z,4.60
2023-01-19T04:29:47.531Z,4.80
2023-01-19T04:30:47.519Z,4.30
2023-01-19T04:31:47.527Z,4.30
2023-01-19T04:32:47.509Z,4.60
2023-01-19T04:33:47.499Z,4.30
2023-01-19T04:34:47.483Z,4.90
2023-01-19T04:35:47.478Z,4.30
2023-01-19T04:36:47.497Z,4.80
2023-01-19T04:37:47.460Z,4.20
2023-01-19T04:38:47.436Z,4.90
2023-01-19T04:39:47.431Z,4.20
2023-01-19T04:40:47.427Z,4.00
2023-01-19T04:41:47.421Z,4.10
2023-01-19T04:42:47.520Z,3.80
2023-01-19T04:43:47.397Z,4.40
2023-01-19T04:44:47.396Z,4.20
2023-01-19T04:45:47.402Z,4.70
2023-01-19T04:46:47.402Z,4.50
2023-01-19T04:47:47.342Z,4.60
2023-01-19T04:48:47.358Z,4.80
2023-01-19T04:49:47.336Z,4.50
2023-01-19T04:50:47.325Z,4.30
2023-01-19T04:51:47.327Z,4.20
2023-01-19T04:52:47.299Z,4.50
2023-01-19T04:53:53.330Z,4.20
2023-01-19T04:54:49.962Z,4.40
2023-01-19T04:55:47.280Z,4.60
2023-01-19T04:56:47.293Z,5.30
2023-01-19T04:57:47.258Z,4.80
2023-01-19T04:58:47.289Z,4.50
2023-01-19T04:59:47.257Z,4.20
2023-01-19T05:00:47.254Z,5.00
2023-01-19T05:01:47.296Z,4.50
2023-01-19T05:02:47.277Z,3.60
2023-01-19T05:03:47.228Z,5.20
2023-01-19T05:04:47.179Z,4.70
2023-01-19T05:05:47.213Z,4.90
2023-01-19T05:06:47.198Z,4.30
2023-01-19T05:07:47.165Z,4.80
2023-01-19T05:08:47.191Z,5.10
2023-01-19T05:09:47.131Z,4.80
2023-01-19T05:10:47.129Z,3.80
2023-01-19T05:11:47.144Z,5.80
2023-01-19T05:12:47.135Z,4.50
2023-01-19T05:13:47.095Z,4.80
2023-01-19T05:14:47.100Z,4.60
2023-01-19T05:15:47.118Z,4.40
2023-01-19T05:16:47.085Z,4.50
2023-01-19T05:17:47.081Z,4.40
2023-01-19T05:18:47.073Z,4.40
2023-01-19T05:19:47.033Z,4.80
2023-01-19T05:20:47.041Z,4.30
2023-01-19T05:21:47.048Z,4.90
2023-01-19T05:22:47.002Z,4.20
2023-01-19T05:23:47.026Z,4.80
2023-01-19T05:24:46.989Z,4.70
2023-01-19T05:25:47.003Z,3.70
2023-01-19T05:26:46.977Z,5.00
2023-01-19T05:27:46.946Z,4.70
2023-01-19T05:28:46.937Z,4.40
2023-01-19T05:29:46.946Z,4.60
2023-01-19T05:30:46.987Z,4.70
2023-01-19T05:31:46.992Z,4.50
2023-01-19T05:32:46.906Z,4.30
2023-01-19T05:33:46.947Z,4.10
2023-01-19T05:34:46.900Z,4.00
2023-01-19T05:35:46.874Z,4.20
2023-01-19T05:36:46.912Z,4.80
2023-01-19T05:37:46.861Z,4.60
2023-01-19T05:38:46.843Z,4.10
2023-01-19T05:39:46.834Z,4.10
2023-01-19T05:40:46.817Z,5.20
2023-01-19T05:41:46.832Z,4.60
2023-01-19T05:42:46.831Z,4.00
2023-01-19T05:43:46.825Z,4.10
2023-01-19T05:44:46.778Z,4.50
2023-01-19T05:45:46.778Z,4.60
2023-01-19T05:46:46.871Z,4.30
2023-01-19T05:47:46.803Z,4.30
2023-01-19T05:48:46.743Z,4.10
2023-01-19T05:49:46.747Z,4.30
2023-01-19T05:50:46.726Z,4.40
2023-01-19T05:51:46.736Z,4.40
2023-01-19T05:52:46.722Z,4.30
2023-01-19T05:53:46.687Z,5.20
2023-01-19T05:54:46.691Z,4.70
2023-01-19T05:55:46.719Z,4.50
2023-01-19T05:56:46.671Z,4.50
2023-01-19T05:57:46.693Z,4.60
2023-01-19T05:58:46.658Z,4.40
2023-01-19T05:59:46.656Z,4.00
2023-01-19T06:00:46.634Z,4.20
2023-01-19T06:01:46.684Z,4.20
2023-01-19T06:02:46.675Z,4.60
2023-01-19T06:03:46.625Z,4.50
2023-01-19T06:04:46.594Z,4.40
2023-01-19T06:05:46.591Z,4.10
2023-01-19T06:06:46.564Z,4.70
2023-01-19T06:07:46.594Z,4.90
2023-01-19T06:08:46.540Z,4.40
2023-01-19T06:09:46.533Z,4.30
2023-01-19T06:10:46.545Z,4.10
2023-01-19T06:11:46.548Z,4.60
2023-01-19T06:12:46.520Z,4.80
2023-01-19T06:13:46.513Z,4.40
2023-01-19T06:14:46.510Z,5.00
2023-01-19T06:15:46.470Z,5.90
2023-01-19T06:16:46.546Z,4.90
2023-01-19T06:17:46.529Z,4.20
2023-01-19T06:18:46.439Z,3.70
2023-01-19T06:19:46.438Z,4.30
2023-01-19T06:20:46.460Z,4.80
2023-01-19T06:21:46.420Z,5.00
2023-01-19T06:22:46.435Z,5.10
2023-01-19T06:23:46.535Z,4.00
2023-01-19T06:24:46.646Z,4.30
2023-01-19T06:25:46.490Z,4.80
2023-01-19T06:26:46.431Z,4.80
2023-01-19T06:27:46.378Z,5.20
2023-01-19T06:28:46.382Z,5.10
2023-01-19T06:29:46.798Z,5.20
2023-01-19T06:30:46.417Z,4.00
2023-01-19T06:31:46.390Z,4.30
2023-01-19T06:32:46.944Z,4.50
2023-01-19T06:33:46.337Z,4.40
2023-01-19T06:34:46.277Z,4.50
2023-01-19T06:35:46.397Z,4.60
2023-01-19T06:36:46.269Z,5.20
2023-01-19T06:37:46.280Z,4.80
2023-01-19T06:38:46.210Z,4.30
2023-01-19T06:39:46.231Z,4.20
2023-01-19T06:40:46.252Z,4.60
2023-01-19T06:41:46.185Z,4.70
2023-01-19T06:42:46.159Z,5.20
2023-01-19T06:43:46.302Z,4.40
2023-01-19T06:44:46.147Z,4.30
2023-01-19T06:45:46.277Z,4.60
2023-01-19T06:46:46.113Z,4.90
2023-01-19T06:47:46.121Z,4.80
2023-01-19T06:48:46.100Z,3.80
2023-01-19T06:49:46.151Z,4.50
2023-01-19T06:50:46.104Z,4.80
2023-01-19T06:51:46.078Z,4.70
2023-01-19T06:52:46.064Z,4.60
2023-01-19T06:53:46.147Z,4.50
2023-01-19T06:54:46.281Z,4.50
2023-01-19T06:55:46.346Z,4.10
2023-01-19T06:56:46.295Z,4.30
2023-01-19T06:57:46.241Z,4.30
2023-01-19T06:58:45.992Z,4.30
2023-01-19T06:59:46.051Z,4.50
2023-01-19T07:00:46.028Z,5.00
2023-01-19T07:01:46.135Z,4.90
2023-01-19T07:02:46.157Z,4.20
2023-01-19T07:03:47.051Z,4.70
2023-01-19T07:04:46.002Z,4.30
2023-01-19T07:05:45.981Z,4.40
2023-01-19T07:06:46.001Z,4.20
2023-01-19T07:07:46.033Z,4.60
2023-01-19T07:08:46.005Z,4.40
2023-01-19T07:09:46.022Z,4.40
2023-01-19T07:11:27.113Z,4.40
2023-01-19T07:11:46.198Z,4.90
2023-01-19T07:12:45.921Z,4.90
2023-01-19T07:13:45.873Z,4.10
2023-01-19T07:14:45.877Z,4.30
2023-01-19T07:15:45.854Z,4.90
2023-01-19T07:16:45.882Z,4.70
2023-01-19T07:17:46.430Z,4.50
2023-01-19T07:18:45.786Z,4.70
2023-01-19T07:19:45.838Z,5.00
2023-01-19T07:20:45.813Z,4.20
2023-01-19T07:21:45.770Z,4.80
2023-01-19T07:22:45.769Z,3.90
2023-01-19T07:23:45.781Z,4.50
2023-01-19T07:24:45.739Z,4.50
2023-01-19T07:25:45.723Z,4.90
2023-01-19T07:26:45.715Z,4.60
2023-01-19T07:27:45.714Z,4.60
2023-01-19T07:28:47.373Z,4.50
2023-01-19T07:29:45.682Z,4.80
2023-01-19T07:30:45.731Z,4.00
2023-01-19T07:31:45.796Z,4.70
2023-01-19T07:32:45.675Z,4.20
2023-01-19T07:33:45.671Z,4.60
2023-01-19T07:34:45.619Z,4.00
2023-01-19T07:35:45.615Z,4.40
2023-01-19T07:36:45.620Z,4.10
2023-01-19T07:37:45.623Z,4.40
2023-01-19T07:38:45.606Z,4.40
2023-01-19T07:39:45.579Z,5.20
2023-01-19T07:40:45.563Z,4.60
2023-01-19T07:41:45.570Z,4.70
2023-01-19T07:42:45.561Z,4.10
2023-01-19T07:43:45.571Z,4.50
2023-01-19T07:44:45.534Z,4.50
2023-01-19T07:45:45.572Z,4.40
2023-01-19T07:46:45.504Z,4.30
2023-01-19T07:47:45.534Z,5.20
2023-01-19T07:48:45.492Z,4.70
2023-01-19T07:49:45.478Z,4.00
2023-01-19T07:50:45.480Z,4.60
2023-01-19T07:51:45.501Z,4.70
2023-01-19T07:52:45.465Z,4.90
2023-01-19T07:53:45.444Z,4.50
2023-01-19T07:54:45.419Z,5.00
2023-01-19T07:55:45.427Z,4.20
2023-01-19T07:56:45.433Z,4.80
2023-01-19T07:57:45.438Z,6.30
2023-01-19T07:58:45.405Z,6.80
2023-01-19T07:59:45.390Z,6.10
2023-01-19T08:00:45.373Z,5.50
2023-01-19T08:01:45.678Z,4.40
2023-01-19T08:02:45.418Z,4.50
2023-01-19T08:03:45.342Z,4.80
2023-01-19T08:04:45.403Z,4.30
2023-01-19T08:05:45.342Z,4.70
2023-01-19T08:06:45.348Z,4.60
2023-01-19T08:07:45.326Z,4.70
2023-01-19T08:08:45.282Z,4.40
2023-01-19T08:09:45.293Z,4.70
2023-01-19T08:10:45.283Z,3.90
2023-01-19T08:11:45.270Z,4.50
2023-01-19T08:12:45.288Z,4.00
2023-01-19T08:13:45.241Z,4.00
2023-01-19T08:14:45.251Z,3.90
2023-01-19T08:15:45.318Z,4.70
2023-01-19T08:16:45.240Z,5.20
2023-01-19T08:17:45.215Z,4.30
2023-01-19T08:18:45.204Z,4.00
2023-01-19T08:19:45.217Z,4.10
2023-01-19T08:20:45.170Z,4.10
2023-01-19T08:21:45.161Z,4.10
2023-01-19T08:22:45.234Z,4.40
2023-01-19T08:23:45.161Z,4.00
2023-01-19T08:24:45.135Z,4.90
2023-01-19T08:25:45.177Z,4.30
2023-01-19T08:26:45.105Z,3.60
2023-01-19T08:27:45.151Z,4.10
2023-01-19T08:28:45.127Z,4.20
2023-01-19T08:29:45.099Z,3.70
2023-01-19T08:30:45.387Z,4.50
2023-01-19T08:31:45.175Z,3.80
2023-01-19T08:32:45.059Z,4.10
2023-01-19T08:33:45.042Z,3.60
2023-01-19T08:34:45.061Z,3.80
2023-01-19T08:35:45.075Z,3.90
2023-01-19T08:36:45.010Z,4.20
2023-01-19T08:37:45.023Z,4.30
2023-01-19T08:38:45.018Z,4.00
2023-01-19T08:39:44.997Z,4.60
2023-01-19T08:40:44.988Z,3.80
2023-01-19T08:41:44.966Z,4.20
2023-01-19T08:42:44.969Z,3.70
2023-01-19T08:43:44.955Z,4.20
2023-01-19T08:44:57.340Z,4.20
2023-01-19T08:45:44.925Z,3.80
2023-01-19T08:46:44.990Z,4.60
2023-01-19T08:47:44.952Z,3.60
2023-01-19T08:48:44.914Z,4.00
2023-01-19T08:49:44.876Z,3.50
2023-01-19T08:50:44.889Z,4.50
2023-01-19T08:51:44.881Z,3.70
2023-01-19T08:52:44.872Z,4.10
2023-01-19T08:53:44.849Z,5.10
2023-01-19T08:54:44.846Z,4.00
2023-01-19T08:55:44.859Z,4.30
2023-01-19T08:56:44.816Z,3.80
2023-01-19T08:57:44.828Z,4.50
2023-01-19T08:58:45.706Z,3.50
2023-01-19T08:59:44.784Z,3.80
2023-01-19T09:00:44.787Z,3.40
2023-01-19T09:01:45.006Z,4.00
2023-01-19T09:02:44.825Z,3.90
2023-01-19T09:03:44.807Z,4.10
2023-01-19T09:04:44.734Z,3.50
2023-01-19T09:05:44.747Z,3.70
2023-01-19T09:06:44.728Z,3.80
2023-01-19T09:07:44.732Z,4.20
2023-01-19T09:08:44.691Z,4.10
2023-01-19T09:09:44.720Z,3.20
2023-01-19T09:10:44.685Z,4.30
2023-01-19T09:11:44.683Z,3.60
2023-01-19T09:12:44.660Z,3.60
2023-01-19T09:13:44.641Z,3.90
2023-01-19T09:14:44.637Z,3.90
2023-01-19T09:15:44.708Z,3.90
2023-01-19T09:16:44.614Z,3.90
2023-01-19T09:17:44.613Z,3.50
2023-01-19T09:18:44.590Z,3.20
2023-01-19T09:19:44.576Z,3.80
2023-01-19T09:20:44.581Z,3.50
2023-01-19T09:21:44.563Z,3.10
2023-01-19T09:22:44.575Z,3.50
2023-01-19T09:23:44.553Z,3.00
2023-01-19T09:24:44.600Z,3.40
2023-01-19T09:25:44.538Z,3.00
2023-01-19T09:26:44.526Z,3.10
2023-01-19T09:27:44.522Z,3.30
2023-01-19T09:28:44.539Z,3.70
2023-01-19T09:29:44.534Z,3.40
2023-01-19T09:30:44.634Z,3.00
2023-01-19T09:31:44.531Z,3.50
2023-01-19T09:32:44.453Z,3.50
2023-01-19T09:33:44.460Z,3.50
2023-01-19T09:34:44.466Z,3.20
2023-01-19T09:35:44.423Z,3.40
2023-01-19T09:36:44.417Z,3.10
2023-01-19T09:37:44.418Z,3.60
2023-01-19T09:38:44.433Z,3.20
2023-01-19T09:39:44.407Z,2.90
2023-01-19T09:40:44.397Z,3.30
2023-01-19T09:41:44.374Z,3.30
2023-01-19T09:42:44.369Z,3.20
2023-01-19T09:43:44.359Z,3.10
2023-01-19T09:44:44.385Z,3.30
2023-01-19T09:45:44.327Z,3.10
2023-01-19T09:46:44.446Z,3.20
2023-01-19T09:47:44.314Z,3.00
2023-01-19T09:48:44.325Z,3.30
2023-01-19T09:49:44.275Z,3.30
2023-01-19T09:50:44.330Z,3.30
2023-01-19T09:51:44.279Z,3.50
2023-01-19T09:52:44.268Z,3.40
2023-01-19T09:53:44.280Z,3.50
2023-01-19T09:54:44.246Z,3.40
2023-01-19T09:55:44.232Z,3.20
2023-01-19T09:56:44.213Z,2.60
2023-01-19T09:57:44.227Z,3.30
2023-01-19T09:58:44.209Z,3.60
2023-01-19T09:59:44.185Z,2.90
2023-01-19T10:00:44.336Z,2.80
2023-01-19T10:01:44.218Z,3.10
2023-01-19T10:02:44.272Z,2.80
2023-01-19T10:03:44.175Z,3.10
2023-01-19T10:04:44.159Z,3.70
2023-01-19T10:05:44.119Z,3.60
2023-01-19T10:06:44.104Z,3.00
2023-01-19T10:07:44.092Z,3.10
2023-01-19T10:08:44.168Z,3.70
2023-01-19T10:09:44.082Z,3.00
2023-01-19T10:10:44.129Z,3.20
2023-01-19T10:11:52.625Z,3.10
2023-01-19T10:12:44.050Z,2.90
2023-01-19T10:13:44.066Z,2.90
2023-01-19T10:14:44.051Z,3.40
2023-01-19T10:15:44.107Z,3.10
2023-01-19T10:16:44.033Z,3.60
2023-01-19T10:17:43.992Z,3.20
2023-01-19T10:18:44.033Z,3.10
2023-01-19T10:19:46.444Z,3.30
2023-01-19T10:20:44.008Z,3.10
2023-01-19T10:21:43.956Z,2.60
2023-01-19T10:22:43.959Z,3.40
2023-01-19T10:23:43.977Z,3.10
2023-01-19T10:24:43.981Z,3.30
2023-01-19T10:25:43.983Z,3.00
2023-01-19T10:26:43.912Z,3.60
2023-01-19T10:27:43.906Z,3.30
2023-01-19T10:28:43.905Z,3.10
2023-01-19T10:29:43.872Z,3.00
2023-01-19T10:30:43.919Z,2.90
2023-01-19T10:31:43.973Z,3.40
2023-01-19T10:32:43.876Z,3.30
2023-01-19T10:33:43.862Z,3.60
2023-01-19T10:34:43.875Z,3.10
2023-01-19T10:35:43.828Z,3.20
2023-01-19T10:36:43.865Z,3.30
2023-01-19T10:37:43.822Z,3.30
2023-01-19T10:38:43.796Z,3.40
2023-01-19T10:39:43.790Z,3.30
2023-01-19T10:40:43.792Z,2.90
2023-01-19T10:41:43.756Z,3.80
2023-01-19T10:42:43.750Z,3.10
2023-01-19T10:43:43.795Z,3.00
2023-01-19T10:44:43.737Z,3.00
2023-01-19T10:45:43.748Z,3.10
2023-01-19T10:46:43.834Z,3.20
2023-01-19T10:47:43.702Z,3.40
2023-01-19T10:48:43.769Z,3.20
2023-01-19T10:49:43.704Z,3.40
2023-01-19T10:50:43.752Z,3.40
2023-01-19T10:51:43.653Z,3.40
2023-01-19T10:52:43.646Z,3.30
2023-01-19T10:53:43.656Z,3.70
2023-01-19T10:54:43.660Z,2.90
2023-01-19T10:55:43.608Z,2.80
2023-01-19T10:56:43.643Z,3.00
2023-01-19T10:57:43.627Z,3.10
2023-01-19T10:58:43.689Z,3.60
2023-01-19T10:59:43.592Z,2.80
2023-01-19T11:00:43.661Z,3.30
2023-01-19T11:01:43.678Z,3.00
2023-01-19T11:02:43.625Z,3.30
2023-01-19T11:03:43.578Z,3.30
2023-01-19T11:04:43.524Z,2.90
2023-01-19T11:05:43.537Z,3.20
2023-01-19T11:06:43.504Z,3.30
2023-01-19T11:07:43.526Z,3.10
2023-01-19T11:08:43.499Z,3.40
2023-01-19T11:09:43.517Z,3.00
2023-01-19T11:10:43.494Z,2.90
2023-01-19T11:11:43.512Z,3.40
2023-01-19T11:12:43.451Z,3.20
2023-01-19T11:13:43.453Z,3.30
2023-01-19T11:14:43.479Z,3.20
2023-01-19T11:15:43.433Z,2.70
2023-01-19T11:16:43.504Z,3.20
2023-01-19T11:17:43.417Z,2.90
2023-01-19T11:18:43.399Z,3.20
2023-01-19T11:19:43.429Z,3.00
2023-01-19T11:20:43.370Z,3.30
2023-01-19T11:21:43.381Z,3.60
2023-01-19T11:22:43.356Z,3.90
2023-01-19T11:23:43.352Z,4.20
2023-01-19T11:24:43.317Z,3.00
2023-01-19T11:25:43.320Z,4.00
2023-01-19T11:26:43.327Z,3.40
2023-01-19T11:27:43.278Z,4.90
2023-01-19T11:28:45.052Z,4.00
2023-01-19T11:29:43.286Z,3.90
2023-01-19T11:30:43.289Z,2.80
2023-01-19T11:31:43.375Z,3.80
2023-01-19T11:32:43.322Z,3.20
2023-01-19T11:33:43.256Z,3.30
2023-01-19T11:34:43.219Z,3.00
2023-01-19T11:35:43.226Z,3.30
2023-01-19T11:36:43.316Z,3.30
2023-01-19T11:37:43.363Z,3.30
2023-01-19T11:38:43.196Z,3.90
2023-01-19T11:39:43.206Z,3.50
2023-01-19T11:40:43.152Z,2.80
2023-01-19T11:41:43.187Z,3.10
2023-01-19T11:42:43.158Z,3.10
2023-01-19T11:43:49.054Z,3.20
2023-01-19T11:44:43.133Z,3.60
2023-01-19T11:45:43.235Z,3.80
2023-01-19T11:46:43.120Z,3.20
2023-01-19T11:47:43.079Z,2.90
2023-01-19T11:48:43.121Z,2.90
2023-01-19T11:49:43.107Z,3.00
2023-01-19T11:50:43.051Z,3.30
2023-01-19T11:51:43.121Z,3.40
2023-01-19T11:52:43.273Z,3.40
2023-01-19T11:53:43.033Z,3.30
2023-01-19T11:54:43.025Z,2.80
2023-01-19T11:55:43.018Z,3.40
2023-01-19T11:56:43.033Z,3.40
2023-01-19T11:57:42.977Z,3.60
2023-01-19T11:58:43.027Z,3.60
2023-01-19T11:59:42.995Z,3.70
2023-01-19T12:00:42.958Z,3.50
2023-01-19T12:01:42.957Z,3.20
2023-01-19T12:02:42.956Z,3.80
2023-01-19T12:03:43.092Z,3.30
2023-01-19T12:04:42.911Z,3.20
2023-01-19T12:05:42.927Z,2.80
2023-01-19T12:06:42.906Z,3.50
2023-01-19T12:07:42.885Z,3.60
2023-01-19T12:08:42.907Z,2.90
2023-01-19T12:09:42.895Z,3.80
2023-01-19T12:10:42.868Z,3.20
2023-01-19T12:11:42.865Z,3.50
2023-01-19T12:12:42.823Z,3.30
2023-01-19T12:13:42.813Z,3.40
2023-01-19T12:14:42.918Z,3.00
2023-01-19T12:15:42.850Z,3.30
2023-01-19T12:16:42.901Z,3.30
2023-01-19T12:17:42.805Z,3.80
2023-01-19T12:18:42.845Z,3.10
2023-01-19T12:19:42.769Z,3.50
2023-01-19T12:20:42.950Z,3.30
2023-01-19T12:21:42.763Z,3.60
2023-01-19T12:22:42.771Z,3.40
2023-01-19T12:23:42.731Z,3.80
2023-01-19T12:24:42.763Z,3.50
2023-01-19T12:25:42.722Z,3.60
2023-01-19T12:26:42.812Z,3.20
2023-01-19T12:27:42.728Z,3.80
2023-01-19T12:28:42.851Z,3.60
2023-01-19T12:29:42.965Z,3.50
2023-01-19T12:30:42.832Z,3.80
2023-01-19T12:31:42.932Z,3.60
2023-01-19T12:32:42.665Z,3.50
2023-01-19T12:33:42.676Z,3.70
2023-01-19T12:34:42.666Z,3.10
2023-01-19T12:35:42.610Z,3.30
2023-01-19T12:36:42.668Z,3.40
2023-01-19T12:37:42.802Z,4.00
2023-01-19T12:38:42.574Z,4.00
2023-01-19T12:39:42.776Z,3.50
2023-01-19T12:40:42.580Z,3.80
2023-01-19T12:41:42.597Z,3.90
2023-01-19T12:42:42.553Z,3.20
2023-01-19T12:43:42.536Z,3.60
2023-01-19T12:44:42.622Z,4.20
2023-01-19T12:45:42.529Z,3.70
2023-01-19T12:46:42.651Z,3.90
2023-01-19T12:47:42.516Z,3.90
2023-01-19T12:48:42.545Z,3.60
2023-01-19T12:49:42.514Z,3.70
2023-01-19T12:50:42.569Z,4.20
2023-01-19T12:51:42.719Z,3.90
2023-01-19T12:52:42.475Z,3.60
2023-01-19T12:53:42.497Z,3.50
2023-01-19T12:54:42.508Z,4.10
2023-01-19T12:55:42.601Z,4.00
2023-01-19T12:56:42.497Z,3.30
2023-01-19T12:57:42.399Z,3.30
2023-01-19T12:58:42.386Z,3.50
2023-01-19T12:59:42.425Z,3.20
2023-01-19T13:00:42.366Z,4.10
2023-01-19T13:01:42.535Z,3.60
2023-01-19T13:02:42.367Z,3.50
2023-01-19T13:03:42.336Z,3.70
2023-01-19T13:04:42.329Z,3.80
2023-01-19T13:05:42.326Z,3.90
2023-01-19T13:06:42.290Z,4.30
2023-01-19T13:07:42.351Z,3.90
2023-01-19T13:08:42.274Z,3.60
2023-01-19T13:09:42.306Z,3.90
2023-01-19T13:10:42.316Z,4.10
2023-01-19T13:11:44.363Z,3.90
2023-01-19T13:12:42.260Z,4.40
2023-01-19T13:13:42.258Z,4.20
2023-01-19T13:14:42.226Z,3.50
2023-01-19T13:15:42.246Z,3.50
2023-01-19T13:16:42.195Z,4.40
2023-01-19T13:17:42.172Z,3.90
2023-01-19T13:18:42.166Z,3.60